New Lancaster, Indiana
Current Conditions -  °F | °C
As of 12:55 AM on Monday 22 Dec 2014 (Local Time) from KMZZ Reporting Station
Clear Clear  
Wind Chill: 21°   Ceiling: Unl
Heat Index: 29°   Visibility: 7mi
Dew Point: 25°   Wind: 7mph
Humidity: 87%   Direction: 130°SE
Pressure: 30.08"   Gusts: NA
Location:  40.3067°N, 85.834°W
Report Text: KMZZ 220555Z AUTO 13006KT 7SM CLR M02/M04 A3008 RMK AO2 T10191038 10100 21054 401001054
Loading
Personal Weather Stations






























Interactive Weather Map New forecast layout! Learn more

10-Day Weather Forecast

Advertisements
Track Severe Weather on mobile